ENSH/SVJ METAR and TAF weather

Enter ICAO airport designator
Station Type Date Time Source
ENSH METAR 2019/02/22 21:20 UTC NOAA

ENSH 222120Z 23012KT 9000 -RADZ BKN004 OVC007 05/05 Q1012 RMK WIND 150FT 20008KT


Station Type Date Time Source
ENSH Decoded METAR 2019/02/22 21:20 UTC NOAA

Svolvaer / Helle, Norway (ENSH) 68-15N 014-40E 9M
Feb 22, 2019 - 04:20 PM EST / 2019.02.22 2120 UTC
Wind: from the SW (230 degrees) at 14 MPH (12 KT):0
Visibility: 5 mile(s):0
Sky conditions: overcast
Weather: light rain, drizzle
Temperature: 41 F (5 C)
Dew Point: 41 F (5 C)
Relative Humidity: 100%
Pressure (altimeter): 29.88 in. Hg (1012 hPa)
ob: ENSH 222120Z 23012KT 9000 -RADZ BKN004 OVC007 05/05 Q1012 RMK WIND 150FT 20008KT
cycle: 21

Station Type Date Time Source
ENSH TAF UTC NOAA

Error!


Example: see airport list